Time;durP1;ratioP1;P1;durP2;ratioP2;P2;SDS_P1;SDS_P2;PMS_P1;PMS_P2;Temp;Humidity;BMP_temperature;BMP_pressure;BME280_temperature;BME280_humidity;BME280_pressure;Samples;Min_cycle;Max_cycle;Signal;HPM_P1;HPM_P2
2022/03/04 00:02:11;;;;;;;7.13;4.82;;;;;;;;;;5045239;28;20055;-54
2022/03/04 00:04:38;;;;;;;9.50;5.68;;;;;;;;;;5045129;28;20025;-54
2022/03/04 00:07:05;;;;;;;12.65;6.07;;;;;;;;;;5054961;28;20036;-54
2022/03/04 00:09:31;;;;;;;8.93;5.18;;;;;;;;;;5045006;28;20025;-54
2022/03/04 00:11:58;;;;;;;7.50;5.03;;;;;;;;;;5068123;28;20082;-54
2022/03/04 00:14:26;;;;;;;7.32;4.70;;;;;;;;;;5069847;28;20036;-53
2022/03/04 00:16:53;;;;;;;7.70;5.22;;;;;;;;;;5070426;28;20024;-54
2022/03/04 00:19:19;;;;;;;5.78;4.20;;;;;;;;;;5069837;28;20120;-54
2022/03/04 00:21:47;;;;;;;7.13;4.43;;;;;;;;;;5071102;28;20082;-54
2022/03/04 00:24:13;;;;;;;7.35;4.90;;;;;;;;;;5071167;28;20024;-54
2022/03/04 00:26:40;;;;;;;10.13;5.20;;;;;;;;;;5070480;28;20462;-54
2022/03/04 00:29:07;;;;;;;8.32;4.95;;;;;;;;;;5069595;28;20476;-54
2022/03/04 00:31:33;;;;;;;6.85;4.97;;;;;;;;;;5070529;28;20062;-54
2022/03/04 00:34:00;;;;;;;6.50;4.32;;;;;;;;;;5070759;28;20028;-54
2022/03/04 00:36:26;;;;;;;7.13;4.93;;;;;;;;;;5070839;28;20029;-54
2022/03/04 00:38:53;;;;;;;8.15;5.30;;;;;;;;;;5052864;28;20485;-54
2022/03/04 00:41:19;;;;;;;7.65;5.15;;;;;;;;;;5050486;28;20111;-54
2022/03/04 00:43:45;;;;;;;6.68;4.90;;;;;;;;;;5063988;28;20025;-54
2022/03/04 00:46:13;;;;;;;8.45;4.95;;;;;;;;;;5070652;28;20025;-54
2022/03/04 00:48:39;;;;;;;7.70;5.07;;;;;;;;;;5069221;28;20051;-54
2022/03/04 00:51:05;;;;;;;8.45;4.97;;;;;;;;;;5070597;28;20067;-54
2022/03/04 00:53:31;;;;;;;7.85;5.00;;;;;;;;;;5070197;28;20024;-55
2022/03/04 00:55:58;;;;;;;6.97;5.03;;;;;;;;;;5068949;28;20053;-54
2022/03/04 00:58:25;;;;;;;6.43;4.60;;;;;;;;;;5069187;28;20036;-54
2022/03/04 01:00:51;;;;;;;5.90;4.13;;;;;;;;;;5070008;28;20027;-54
2022/03/04 01:03:18;;;;;;;7.15;4.60;;;;;;;;;;5087817;28;20039;-54
2022/03/04 01:05:44;;;;;;;6.85;4.30;;;;;;;;;;5090362;28;20030;-54
2022/03/04 01:08:10;;;;;;;6.03;4.00;;;;;;;;;;5085644;28;20033;-54
2022/03/04 01:10:37;;;;;;;5.45;4.05;;;;;;;;;;5069781;28;20048;-54
2022/03/04 01:13:04;;;;;;;7.20;4.53;;;;;;;;;;5069884;28;20036;-54
2022/03/04 01:15:31;;;;;;;6.45;4.55;;;;;;;;;;5069727;28;20059;-54
2022/03/04 01:17:58;;;;;;;6.55;4.25;;;;;;;;;;5068779;28;20049;-54
2022/03/04 01:20:24;;;;;;;6.35;4.68;;;;;;;;;;5069893;28;20035;-56
2022/03/04 01:22:50;;;;;;;5.32;3.97;;;;;;;;;;5069041;28;20033;-56
2022/03/04 01:25:16;;;;;;;7.30;4.03;;;;;;;;;;5069843;28;20094;-56
2022/03/04 01:27:43;;;;;;;6.47;4.28;;;;;;;;;;5069772;28;20038;-56
2022/03/04 01:30:10;;;;;;;7.15;4.68;;;;;;;;;;5068562;28;20028;-56
2022/03/04 01:32:36;;;;;;;6.57;4.28;;;;;;;;;;5069774;28;20517;-56
2022/03/04 01:35:03;;;;;;;6.68;4.50;;;;;;;;;;5068334;28;20479;-56
2022/03/04 01:37:29;;;;;;;6.25;4.32;;;;;;;;;;5068191;28;20044;-56
2022/03/04 01:39:56;;;;;;;7.55;4.47;;;;;;;;;;5068222;28;20036;-56
2022/03/04 01:42:22;;;;;;;6.68;4.15;;;;;;;;;;5069404;28;20021;-56
2022/03/04 01:44:48;;;;;;;6.03;4.28;;;;;;;;;;5069183;28;20032;-56
2022/03/04 01:47:14;;;;;;;5.97;3.95;;;;;;;;;;5069767;28;20028;-56
2022/03/04 01:49:40;;;;;;;4.82;3.65;;;;;;;;;;5067827;28;20024;-56
2022/03/04 01:52:07;;;;;;;6.43;4.35;;;;;;;;;;5069524;28;20040;-56
2022/03/04 01:54:33;;;;;;;5.25;3.70;;;;;;;;;;5068950;28;20029;-56
2022/03/04 01:56:59;;;;;;;6.03;4.03;;;;;;;;;;5069294;28;20033;-56
2022/03/04 01:59:26;;;;;;;5.60;4.13;;;;;;;;;;5052956;28;20075;-56
2022/03/04 02:01:55;;;;;;;5.40;3.00;;;;;;;;;;5050728;28;20029;-55
2022/03/04 02:04:21;;;;;;;6.10;3.85;;;;;;;;;;5069007;28;20032;-56
2022/03/04 02:06:48;;;;;;;5.40;3.85;;;;;;;;;;5068901;28;20032;-56
2022/03/04 02:09:14;;;;;;;5.10;3.70;;;;;;;;;;5067720;28;20400;-56
2022/03/04 02:11:43;;;;;;;5.60;3.40;;;;;;;;;;5068573;28;20036;-56
2022/03/04 02:14:09;;;;;;;4.82;3.53;;;;;;;;;;5068841;28;20048;-56
2022/03/04 02:16:39;;;;;;;4.70;3.50;;;;;;;;;;5068632;28;20507;-56
2022/03/04 02:19:05;;;;;;;6.93;4.18;;;;;;;;;;5067805;28;20069;-56
2022/03/04 02:21:32;;;;;;;5.07;3.63;;;;;;;;;;5061360;28;20074;-56
2022/03/04 02:23:58;;;;;;;5.88;3.88;;;;;;;;;;5048411;28;20104;-57
2022/03/04 02:26:24;;;;;;;4.50;3.25;;;;;;;;;;5048486;28;20028;-56
2022/03/04 02:28:53;;;;;;;4.70;3.03;;;;;;;;;;5055363;28;20033;-56
2022/03/04 02:31:20;;;;;;;4.90;3.30;;;;;;;;;;5068749;28;20032;-55
2022/03/04 02:33:46;;;;;;;4.97;3.22;;;;;;;;;;5066048;28;20496;-56
2022/03/04 02:36:13;;;;;;;5.93;3.90;;;;;;;;;;5068664;28;20021;-55
2022/03/04 02:38:39;;;;;;;5.38;3.83;;;;;;;;;;5067961;28;20040;-56
2022/03/04 02:43:41;;;;;;;5.65;3.40;;;;;;;;;;5844061;22;20104;-56
2022/03/04 02:46:07;;;;;;;5.90;3.67;;;;;;;;;;4978791;28;20646;-56
2022/03/04 02:48:33;;;;;;;4.78;3.67;;;;;;;;;;4969546;28;20419;-56
2022/03/04 02:50:59;;;;;;;4.43;3.13;;;;;;;;;;4969718;28;20039;-55
2022/03/04 02:53:25;;;;;;;5.45;4.03;;;;;;;;;;4970725;28;20031;-56
2022/03/04 02:55:51;;;;;;;6.53;3.97;;;;;;;;;;4987932;28;20366;-56
2022/03/04 02:58:17;;;;;;;5.85;3.95;;;;;;;;;;4989188;28;20022;-56
2022/03/04 03:00:43;;;;;;;8.75;4.22;;;;;;;;;;4988758;28;20026;-57
2022/03/04 03:03:10;;;;;;;5.90;3.92;;;;;;;;;;4989030;28;20080;-57
2022/03/04 03:05:36;;;;;;;6.95;4.43;;;;;;;;;;4987548;28;20022;-56
2022/03/04 03:08:03;;;;;;;7.57;4.20;;;;;;;;;;4988765;28;20030;-57
2022/03/04 03:10:31;;;;;;;5.43;3.92;;;;;;;;;;4988630;28;20456;-56
2022/03/04 03:12:57;;;;;;;6.97;4.13;;;;;;;;;;4988889;28;20026;-56
2022/03/04 03:15:23;;;;;;;5.90;4.18;;;;;;;;;;4987989;28;20035;-57
2022/03/04 03:17:49;;;;;;;5.57;3.90;;;;;;;;;;4988550;28;20385;-56
2022/03/04 03:20:15;;;;;;;5.57;3.80;;;;;;;;;;4988893;28;20532;-56
2022/03/04 03:22:42;;;;;;;5.30;3.58;;;;;;;;;;4988605;28;20085;-56
2022/03/04 03:25:08;;;;;;;6.20;4.20;;;;;;;;;;4986621;28;20109;-56
2022/03/04 03:27:34;;;;;;;6.32;4.13;;;;;;;;;;4988373;28;20447;-56
2022/03/04 03:30:00;;;;;;;7.30;4.25;;;;;;;;;;4988820;28;20038;-57
2022/03/04 03:32:26;;;;;;;5.38;3.97;;;;;;;;;;4977621;28;20019;-56
2022/03/04 03:34:52;;;;;;;6.75;4.32;;;;;;;;;;4968702;28;20507;-56
2022/03/04 03:37:18;;;;;;;5.38;4.05;;;;;;;;;;4983510;28;20505;-56
2022/03/04 03:39:45;;;;;;;4.78;3.67;;;;;;;;;;4988235;28;20041;-56
2022/03/04 03:42:11;;;;;;;5.35;3.60;;;;;;;;;;4988407;28;20493;-56
2022/03/04 03:44:37;;;;;;;5.78;3.78;;;;;;;;;;4988768;28;20062;-57
2022/03/04 03:47:03;;;;;;;5.90;4.28;;;;;;;;;;4991750;28;20587;-56
2022/03/04 03:49:29;;;;;;;5.32;4.07;;;;;;;;;;4991171;28;20031;-56
2022/03/04 03:51:55;;;;;;;5.32;3.88;;;;;;;;;;4992308;28;20033;-56
2022/03/04 03:54:21;;;;;;;5.95;4.30;;;;;;;;;;4992185;28;20388;-56
2022/03/04 03:56:47;;;;;;;5.78;4.10;;;;;;;;;;4991889;28;20027;-57
2022/03/04 03:59:14;;;;;;;5.53;3.70;;;;;;;;;;4988870;28;20061;-56
2022/03/04 04:01:40;;;;;;;6.40;4.10;;;;;;;;;;4984494;28;20035;-56
2022/03/04 04:04:12;;;;;;;7.43;4.60;;;;;;;;;;4972184;28;20178;-56
2022/03/04 04:06:39;;;;;;;7.53;4.65;;;;;;;;;;4972001;28;20038;-56
2022/03/04 04:09:05;;;;;;;6.82;4.75;;;;;;;;;;4971457;28;20066;-55
2022/03/04 04:11:35;;;;;;;6.95;4.88;;;;;;;;;;4971336;28;20421;-55
2022/03/04 04:14:01;;;;;;;7.03;5.00;;;;;;;;;;4971663;28;20057;-56
2022/03/04 04:16:27;;;;;;;7.25;4.95;;;;;;;;;;4983423;28;20092;-57
2022/03/04 04:18:53;;;;;;;7.47;4.90;;;;;;;;;;4983570;28;20062;-56
2022/03/04 04:21:19;;;;;;;6.38;4.65;;;;;;;;;;4991728;28;20036;-54
2022/03/04 04:23:45;;;;;;;6.20;4.63;;;;;;;;;;4973851;28;20532;-55
2022/03/04 04:26:12;;;;;;;7.78;5.38;;;;;;;;;;4990874;28;20026;-56
2022/03/04 04:28:38;;;;;;;5.97;4.70;;;;;;;;;;4991520;28;20043;-56
2022/03/04 04:31:04;;;;;;;7.97;5.20;;;;;;;;;;4991634;28;20377;-57
2022/03/04 04:33:31;;;;;;;9.63;5.30;;;;;;;;;;4991512;28;20176;-56
2022/03/04 04:35:57;;;;;;;8.32;5.30;;;;;;;;;;4990716;28;20109;-56
2022/03/04 04:38:23;;;;;;;5.72;4.15;;;;;;;;;;4991655;28;20037;-56
2022/03/04 04:40:50;;;;;;;7.40;4.82;;;;;;;;;;4991129;28;20030;-56
2022/03/04 04:43:16;;;;;;;8.10;5.13;;;;;;;;;;4991654;28;20432;-56
2022/03/04 04:45:42;;;;;;;7.50;5.30;;;;;;;;;;4990175;28;20033;-56
2022/03/04 04:48:08;;;;;;;7.30;4.93;;;;;;;;;;4990866;28;20121;-56
2022/03/04 04:50:34;;;;;;;6.45;5.10;;;;;;;;;;4991188;28;20026;-56
2022/03/04 04:53:00;;;;;;;7.15;4.95;;;;;;;;;;4991218;28;20034;-56
2022/03/04 04:55:26;;;;;;;7.15;5.15;;;;;;;;;;4991216;28;20041;-56
2022/03/04 04:57:52;;;;;;;8.70;5.60;;;;;;;;;;4989149;28;20038;-56
2022/03/04 05:00:18;;;;;;;7.45;5.72;;;;;;;;;;4991157;28;20477;-57
2022/03/04 05:02:44;;;;;;;9.02;5.95;;;;;;;;;;4991056;28;20591;-56
2022/03/04 05:05:11;;;;;;;6.72;5.38;;;;;;;;;;4990976;28;20037;-57
2022/03/04 05:07:37;;;;;;;8.50;6.13;;;;;;;;;;4989889;28;20948;-56
2022/03/04 05:10:04;;;;;;;9.73;6.47;;;;;;;;;;4991115;28;20133;-56
2022/03/04 05:12:30;;;;;;;7.90;5.72;;;;;;;;;;4990678;28;20037;-56
2022/03/04 05:14:56;;;;;;;9.27;6.32;;;;;;;;;;4989720;28;20735;-57
2022/03/04 05:17:24;;;;;;;11.85;6.88;;;;;;;;;;4988514;28;20044;-56
2022/03/04 05:19:50;;;;;;;8.52;5.97;;;;;;;;;;4989651;28;20030;-56
2022/03/04 05:22:16;;;;;;;9.35;6.28;;;;;;;;;;4990811;28;20038;-57
2022/03/04 05:24:42;;;;;;;10.35;6.68;;;;;;;;;;4990436;28;20386;-56
2022/03/04 05:27:08;;;;;;;9.35;6.22;;;;;;;;;;4990077;28;20465;-56
2022/03/04 05:29:34;;;;;;;9.73;5.88;;;;;;;;;;4990359;28;20034;-57
2022/03/04 05:32:01;;;;;;;7.53;5.35;;;;;;;;;;4990670;28;20022;-56
2022/03/04 05:34:27;;;;;;;9.93;5.70;;;;;;;;;;4990523;28;20034;-57
2022/03/04 05:36:53;;;;;;;7.97;5.45;;;;;;;;;;4989533;28;20030;-56
2022/03/04 05:39:20;;;;;;;7.97;5.72;;;;;;;;;;4989869;28;20114;-57
2022/03/04 05:41:46;;;;;;;7.88;5.63;;;;;;;;;;4989529;28;20026;-57
2022/03/04 05:44:12;;;;;;;7.95;5.80;;;;;;;;;;4990058;28;20042;-56
2022/03/04 05:46:39;;;;;;;8.73;5.90;;;;;;;;;;4989872;28;20110;-56
2022/03/04 05:49:05;;;;;;;6.95;5.28;;;;;;;;;;4989347;28;20030;-55
2022/03/04 05:51:32;;;;;;;9.10;5.95;;;;;;;;;;4989016;28;20054;-56
2022/03/04 05:53:58;;;;;;;8.15;5.40;;;;;;;;;;4989600;28;20029;-55
2022/03/04 05:56:25;;;;;;;8.00;5.90;;;;;;;;;;4990181;28;20072;-56
2022/03/04 05:58:51;;;;;;;10.57;6.72;;;;;;;;;;4989218;28;20370;-55
2022/03/04 06:01:17;;;;;;;9.80;7.05;;;;;;;;;;4981397;28;20532;-56
2022/03/04 06:03:43;;;;;;;13.50;7.90;;;;;;;;;;4981938;28;20081;-56
2022/03/04 06:06:13;;;;;;;11.57;8.05;;;;;;;;;;4989709;28;20026;-54
2022/03/04 06:08:40;;;;;;;12.75;8.15;;;;;;;;;;4988837;28;20026;-55
2022/03/04 06:11:09;;;;;;;12.60;8.05;;;;;;;;;;4989775;28;20022;-56
2022/03/04 06:13:39;;;;;;;14.65;9.15;;;;;;;;;;4989100;28;20038;-56
2022/03/04 06:16:05;;;;;;;13.20;8.57;;;;;;;;;;4989082;28;20057;-55
2022/03/04 06:18:31;;;;;;;13.10;8.43;;;;;;;;;;4988468;28;20022;-55
2022/03/04 06:20:58;;;;;;;13.73;8.90;;;;;;;;;;4989315;28;20034;-54
2022/03/04 06:23:25;;;;;;;16.17;9.88;;;;;;;;;;4988871;28;20026;-55
2022/03/04 06:25:51;;;;;;;19.05;12.50;;;;;;;;;;4989249;28;20076;-54
2022/03/04 06:28:17;;;;;;;15.50;10.60;;;;;;;;;;4989124;28;20483;-54
2022/03/04 06:30:43;;;;;;;16.75;10.75;;;;;;;;;;4989514;28;20053;-56
2022/03/04 06:35:55;;;;;;;17.80;10.80;;;;;;;;;;4988144;28;20032;-54
2022/03/04 06:38:21;;;;;;;13.73;9.18;;;;;;;;;;4988420;28;20030;-56
2022/03/04 06:40:48;;;;;;;14.65;8.77;;;;;;;;;;4988949;28;20161;-55
2022/03/04 06:43:15;;;;;;;13.70;8.90;;;;;;;;;;4989445;28;20113;-56
2022/03/04 06:45:45;;;;;;;12.35;8.25;;;;;;;;;;4988879;28;20443;-56
2022/03/04 06:48:13;;;;;;;12.98;8.65;;;;;;;;;;4991846;28;20695;-55
2022/03/04 06:50:39;;;;;;;12.32;8.10;;;;;;;;;;4988561;28;20437;-55
2022/03/04 06:53:05;;;;;;;13.00;8.23;;;;;;;;;;4987356;28;20560;-56
2022/03/04 06:55:31;;;;;;;11.45;8.13;;;;;;;;;;4989479;28;20396;-56
2022/03/04 06:57:58;;;;;;;12.30;8.23;;;;;;;;;;4970845;28;20042;-56
2022/03/04 07:00:25;;;;;;;13.52;8.07;;;;;;;;;;4970622;28;20030;-56
2022/03/04 07:02:51;;;;;;;12.57;8.02;;;;;;;;;;4981485;28;20520;-56
2022/03/04 07:05:18;;;;;;;11.68;7.90;;;;;;;;;;4988413;28;20494;-55
2022/03/04 07:07:44;;;;;;;14.40;7.85;;;;;;;;;;4983109;28;20485;-55
2022/03/04 07:10:10;;;;;;;13.40;8.13;;;;;;;;;;4988059;28;20027;-54
2022/03/04 07:12:37;;;;;;;13.10;8.80;;;;;;;;;;4983344;28;20513;-54
2022/03/04 07:15:03;;;;;;;11.55;7.85;;;;;;;;;;4987636;28;20038;-55
2022/03/04 07:17:30;;;;;;;10.70;7.60;;;;;;;;;;4979045;28;20113;-55
2022/03/04 07:19:56;;;;;;;14.43;8.38;;;;;;;;;;4951488;28;20355;-55
2022/03/04 07:22:22;;;;;;;11.85;7.75;;;;;;;;;;4985034;28;20759;-54
2022/03/04 07:24:48;;;;;;;12.80;7.85;;;;;;;;;;4988251;28;20026;-54
2022/03/04 07:27:14;;;;;;;12.38;7.70;;;;;;;;;;4987645;28;20497;-55
2022/03/04 07:29:40;;;;;;;13.05;8.45;;;;;;;;;;4986454;28;20489;-55
2022/03/04 07:32:07;;;;;;;11.85;8.05;;;;;;;;;;4966181;28;20054;-55
2022/03/04 07:34:33;;;;;;;13.60;8.25;;;;;;;;;;4987011;28;20077;-55
2022/03/04 07:36:59;;;;;;;11.73;7.85;;;;;;;;;;4986289;28;20367;-54
2022/03/04 07:39:25;;;;;;;11.57;7.82;;;;;;;;;;4986805;28;20425;-55
2022/03/04 07:41:51;;;;;;;12.63;7.95;;;;;;;;;;4983530;28;20113;-55
2022/03/04 07:44:17;;;;;;;12.98;7.93;;;;;;;;;;4985438;28;20826;-56
2022/03/04 07:46:43;;;;;;;13.63;8.05;;;;;;;;;;4983775;28;20034;-54
2022/03/04 07:49:10;;;;;;;12.43;8.63;;;;;;;;;;4988697;28;20184;-54
2022/03/04 07:51:36;;;;;;;12.30;8.30;;;;;;;;;;4988037;28;20046;-55
2022/03/04 07:54:02;;;;;;;12.13;7.50;;;;;;;;;;4988389;28;20042;-56
2022/03/04 07:56:29;;;;;;;11.25;8.05;;;;;;;;;;4987626;28;20454;-55
2022/03/04 07:58:55;;;;;;;16.60;9.30;;;;;;;;;;4986798;28;20035;-55
2022/03/04 08:01:21;;;;;;;12.25;8.20;;;;;;;;;;4986777;28;20239;-56
2022/03/04 08:03:47;;;;;;;12.63;8.13;;;;;;;;;;4987005;28;20061;-55
2022/03/04 08:06:13;;;;;;;12.98;8.75;;;;;;;;;;4986823;28;20513;-55
2022/03/04 08:08:39;;;;;;;14.10;8.65;;;;;;;;;;4987016;28;20517;-55
2022/03/04 08:11:06;;;;;;;11.50;8.32;;;;;;;;;;4986560;28;20041;-56
2022/03/04 08:13:34;;;;;;;14.18;8.75;;;;;;;;;;4986450;28;20034;-55
2022/03/04 08:16:01;;;;;;;11.98;8.18;;;;;;;;;;4986516;28;20584;-56
2022/03/04 08:18:27;;;;;;;12.40;7.90;;;;;;;;;;4986857;28;20042;-55
2022/03/04 08:20:53;;;;;;;13.45;8.88;;;;;;;;;;4986457;28;20030;-56
2022/03/04 08:23:19;;;;;;;13.90;8.48;;;;;;;;;;4986582;28;20035;-55
2022/03/04 08:25:46;;;;;;;13.48;8.23;;;;;;;;;;4986525;28;20027;-56
2022/03/04 08:28:12;;;;;;;13.45;9.13;;;;;;;;;;4986566;28;20470;-55
2022/03/04 08:30:39;;;;;;;13.10;8.85;;;;;;;;;;4986577;28;20089;-55
2022/03/04 08:33:05;;;;;;;11.77;8.38;;;;;;;;;;4989157;28;20026;-55
2022/03/04 08:35:31;;;;;;;13.95;8.95;;;;;;;;;;4989680;28;20026;-54
2022/03/04 08:37:57;;;;;;;13.20;8.70;;;;;;;;;;4989956;28;20489;-56
2022/03/04 08:40:24;;;;;;;11.77;7.80;;;;;;;;;;4990026;28;20505;-56
2022/03/04 08:42:50;;;;;;;12.88;8.93;;;;;;;;;;4989620;28;20030;-56
2022/03/04 08:45:16;;;;;;;12.52;8.30;;;;;;;;;;4989867;28;20061;-56
2022/03/04 08:47:44;;;;;;;13.82;8.52;;;;;;;;;;4989905;28;20030;-55
2022/03/04 08:50:12;;;;;;;13.00;7.95;;;;;;;;;;4989604;28;20030;-55
2022/03/04 08:52:38;;;;;;;11.68;7.72;;;;;;;;;;4989572;28;20030;-54
2022/03/04 08:55:14;;;;;;;11.52;7.57;;;;;;;;;;4989491;28;20033;-55
2022/03/04 08:57:40;;;;;;;13.95;8.18;;;;;;;;;;4989308;28;20027;-56
2022/03/04 09:00:06;;;;;;;11.60;8.30;;;;;;;;;;4989550;28;20085;-55
2022/03/04 09:02:32;;;;;;;10.90;7.57;;;;;;;;;;4989364;28;20408;-55
2022/03/04 09:04:59;;;;;;;13.07;7.72;;;;;;;;;;4989259;28;20675;-56
2022/03/04 09:07:25;;;;;;;14.00;8.80;;;;;;;;;;4989538;28;20450;-55
2022/03/04 09:09:51;;;;;;;12.43;8.15;;;;;;;;;;4989273;28;20023;-54
2022/03/04 09:12:19;;;;;;;13.45;7.82;;;;;;;;;;4989189;28;20119;-55
2022/03/04 09:14:45;;;;;;;12.10;8.05;;;;;;;;;;4989569;28;20508;-55
2022/03/04 09:17:11;;;;;;;11.18;7.72;;;;;;;;;;4989394;28;20417;-56
2022/03/04 09:19:38;;;;;;;11.85;7.70;;;;;;;;;;4988969;28;20405;-55
2022/03/04 09:22:04;;;;;;;12.15;7.75;;;;;;;;;;4988020;28;20053;-54
2022/03/04 09:24:30;;;;;;;13.63;8.82;;;;;;;;;;4988712;28;20050;-56
2022/03/04 09:26:57;;;;;;;15.68;8.82;;;;;;;;;;4988987;28;20058;-56
2022/03/04 09:29:23;;;;;;;12.95;7.93;;;;;;;;;;4989155;28;20022;-56
2022/03/04 09:31:49;;;;;;;12.18;7.72;;;;;;;;;;4989106;28;20048;-55
2022/03/04 09:34:16;;;;;;;10.55;6.88;;;;;;;;;;4989235;28;20030;-56
2022/03/04 09:36:42;;;;;;;10.27;7.03;;;;;;;;;;4988773;28;20097;-56
2022/03/04 09:39:09;;;;;;;10.60;6.85;;;;;;;;;;4988888;28;20030;-56
2022/03/04 09:41:35;;;;;;;10.68;6.88;;;;;;;;;;4988310;28;20034;-56
2022/03/04 09:44:02;;;;;;;11.65;7.72;;;;;;;;;;4988517;28;20054;-55
2022/03/04 09:46:29;;;;;;;9.77;6.80;;;;;;;;;;4988532;28;20037;-56
2022/03/04 09:48:55;;;;;;;10.40;7.20;;;;;;;;;;4988543;28;20027;-54
2022/03/04 09:51:22;;;;;;;10.73;7.07;;;;;;;;;;4988763;28;20113;-55
2022/03/04 09:53:52;;;;;;;10.68;7.25;;;;;;;;;;4988407;28;20034;-55
2022/03/04 09:56:19;;;;;;;13.95;8.73;;;;;;;;;;4988608;28;20022;-55
2022/03/04 09:58:45;;;;;;;10.52;7.20;;;;;;;;;;4987605;28;20030;-56
2022/03/04 10:01:14;;;;;;;11.18;7.22;;;;;;;;;;4985924;28;20030;-55
2022/03/04 10:03:43;;;;;;;10.05;6.95;;;;;;;;;;4988027;28;20030;-55
2022/03/04 10:06:09;;;;;;;10.57;6.57;;;;;;;;;;4988257;28;20034;-55
2022/03/04 10:08:42;;;;;;;11.75;7.28;;;;;;;;;;4988028;28;20106;-54
2022/03/04 10:11:08;;;;;;;11.32;6.60;;;;;;;;;;4988318;28;20061;-55
2022/03/04 10:13:40;;;;;;;10.50;6.75;;;;;;;;;;4987326;28;20112;-56
2022/03/04 10:16:06;;;;;;;9.80;6.43;;;;;;;;;;4987185;28;20529;-55
2022/03/04 10:18:32;;;;;;;11.95;7.53;;;;;;;;;;4986925;28;20544;-56
2022/03/04 10:20:58;;;;;;;9.20;6.15;;;;;;;;;;4986087;28;20030;-55
2022/03/04 10:23:25;;;;;;;10.20;6.45;;;;;;;;;;4990266;28;20619;-55
2022/03/04 10:25:53;;;;;;;12.55;7.68;;;;;;;;;;4988460;28;20679;-55
2022/03/04 10:28:19;;;;;;;12.82;7.78;;;;;;;;;;4988323;28;20033;-54
2022/03/04 10:30:47;;;;;;;9.32;6.32;;;;;;;;;;4989564;28;20034;-56
2022/03/04 10:33:21;;;;;;;7.75;5.53;;;;;;;;;;4989544;28;20097;-55
2022/03/04 10:35:50;;;;;;;11.10;5.93;;;;;;;;;;4980016;28;20117;-54
2022/03/04 10:38:21;;;;;;;9.18;6.63;;;;;;;;;;4984549;28;20723;-55
2022/03/04 10:40:48;;;;;;;12.23;7.93;;;;;;;;;;4989153;28;20092;-55
2022/03/04 10:43:21;;;;;;;9.43;6.18;;;;;;;;;;4986439;28;20412;-55
2022/03/04 10:45:47;;;;;;;10.77;6.70;;;;;;;;;;4987062;28;20113;-56
2022/03/04 10:48:15;;;;;;;10.95;6.80;;;;;;;;;;4981974;28;20031;-56
2022/03/04 10:50:42;;;;;;;9.93;6.63;;;;;;;;;;4983051;28;20069;-55
2022/03/04 10:53:24;;;;;;;9.18;5.72;;;;;;;;;;4988879;28;20057;-57
2022/03/04 10:56:20;;;;;;;8.60;5.95;;;;;;;;;;4987641;28;20493;-55
2022/03/04 10:58:46;;;;;;;7.90;5.50;;;;;;;;;;4963685;28;20045;-57
2022/03/04 11:01:18;;;;;;;8.93;5.72;;;;;;;;;;4981773;28;20339;-56
2022/03/04 11:03:44;;;;;;;8.60;5.65;;;;;;;;;;4987239;28;20062;-56
2022/03/04 11:06:14;;;;;;;7.82;5.20;;;;;;;;;;4969390;28;20030;-56
2022/03/04 11:08:42;;;;;;;9.07;5.60;;;;;;;;;;4987372;28;20038;-56
2022/03/04 11:11:08;;;;;;;7.38;4.90;;;;;;;;;;4987835;28;20038;-56
2022/03/04 11:13:34;;;;;;;6.55;4.65;;;;;;;;;;4986770;28;20540;-56
2022/03/04 11:16:01;;;;;;;8.63;5.97;;;;;;;;;;4988741;28;20042;-56
2022/03/04 11:18:27;;;;;;;10.73;7.28;;;;;;;;;;4988036;28;20105;-56
2022/03/04 11:20:54;;;;;;;9.35;6.20;;;;;;;;;;4987476;28;20504;-57
2022/03/04 11:23:21;;;;;;;8.55;5.75;;;;;;;;;;4987062;28;20544;-56
2022/03/04 11:25:53;;;;;;;9.35;6.57;;;;;;;;;;4988262;28;20026;-57
2022/03/04 11:28:20;;;;;;;12.30;7.38;;;;;;;;;;4987729;28;20129;-56
2022/03/04 11:30:47;;;;;;;9.73;5.90;;;;;;;;;;4988609;28;20034;-56
2022/03/04 11:33:16;;;;;;;7.25;5.40;;;;;;;;;;4988284;28;20390;-58
2022/03/04 11:35:43;;;;;;;11.40;6.72;;;;;;;;;;4988545;28;20076;-58
2022/03/04 11:38:09;;;;;;;11.63;6.65;;;;;;;;;;4985869;28;20042;-58
2022/03/04 11:40:38;;;;;;;11.15;7.57;;;;;;;;;;4987203;28;20030;-58
2022/03/04 11:43:06;;;;;;;10.10;6.47;;;;;;;;;;4988477;28;20687;-57
2022/03/04 11:45:36;;;;;;;9.65;6.50;;;;;;;;;;4985773;28;20027;-57
2022/03/04 11:48:10;;;;;;;10.73;6.57;;;;;;;;;;4986177;28;20042;-57
2022/03/04 11:50:37;;;;;;;10.02;6.10;;;;;;;;;;4986515;28;20162;-57
2022/03/04 11:53:12;;;;;;;8.88;5.93;;;;;;;;;;4988329;28;20026;-57
2022/03/04 11:55:39;;;;;;;10.10;6.97;;;;;;;;;;4988203;28;20109;-57
2022/03/04 11:58:05;;;;;;;12.05;7.63;;;;;;;;;;4987928;28;20022;-57
2022/03/04 12:00:33;;;;;;;9.52;6.53;;;;;;;;;;4988734;28;20366;-57
2022/03/04 12:03:00;;;;;;;12.65;7.53;;;;;;;;;;4981161;28;20027;-58
2022/03/04 12:05:32;;;;;;;9.10;6.18;;;;;;;;;;4987220;28;20384;-58
2022/03/04 12:08:01;;;;;;;8.93;5.68;;;;;;;;;;4964606;28;20025;-58
2022/03/04 12:10:30;;;;;;;8.00;5.35;;;;;;;;;;4990325;28;20054;-58
2022/03/04 12:13:01;;;;;;;10.52;7.05;;;;;;;;;;4989620;28;20109;-58
2022/03/04 12:15:27;;;;;;;9.70;6.65;;;;;;;;;;4988839;28;20034;-58
2022/03/04 12:17:53;;;;;;;9.75;6.38;;;;;;;;;;4988723;28;20042;-58
2022/03/04 12:20:29;;;;;;;14.43;8.15;;;;;;;;;;4971430;28;20041;-58
2022/03/04 12:22:59;;;;;;;14.98;9.35;;;;;;;;;;4975123;28;20406;-58
2022/03/04 12:25:44;;;;;;;12.75;8.13;;;;;;;;;;4989127;28;20034;-58
2022/03/04 12:28:14;;;;;;;16.02;10.18;;;;;;;;;;4970975;28;20030;-58
2022/03/04 12:30:40;;;;;;;19.52;12.60;;;;;;;;;;4965961;28;20049;-58
2022/03/04 12:33:08;;;;;;;15.95;10.15;;;;;;;;;;4969652;28;20050;-58
2022/03/04 12:35:35;;;;;;;14.32;9.27;;;;;;;;;;4988271;28;20034;-58
2022/03/04 12:38:01;;;;;;;14.32;8.63;;;;;;;;;;4988890;28;20058;-59
2022/03/04 12:40:29;;;;;;;11.95;7.72;;;;;;;;;;4988925;28;21969;-59
2022/03/04 12:42:56;;;;;;;14.73;8.57;;;;;;;;;;4989129;28;20030;-58
2022/03/04 12:45:23;;;;;;;12.00;7.57;;;;;;;;;;4988986;28;20085;-59
2022/03/04 12:47:52;;;;;;;13.35;8.82;;;;;;;;;;4987859;28;20026;-58
2022/03/04 12:50:27;;;;;;;17.20;10.27;;;;;;;;;;4988921;28;20022;-58
2022/03/04 12:52:53;;;;;;;15.30;9.48;;;;;;;;;;4988575;28;20378;-59
2022/03/04 12:55:19;;;;;;;18.92;10.65;;;;;;;;;;4988913;28;20037;-58
2022/03/04 12:57:49;;;;;;;20.23;10.35;;;;;;;;;;4969655;28;20326;-58
2022/03/04 13:00:15;;;;;;;18.42;11.50;;;;;;;;;;4968281;28;20110;-58
2022/03/04 13:02:42;;;;;;;15.98;9.85;;;;;;;;;;4987615;28;20031;-58
2022/03/04 13:05:09;;;;;;;14.93;9.15;;;;;;;;;;4987994;28;20033;-59
2022/03/04 13:07:36;;;;;;;10.60;7.32;;;;;;;;;;4988375;28;20422;-59
2022/03/04 13:10:02;;;;;;;10.13;6.65;;;;;;;;;;4988686;28;20393;-58
2022/03/04 13:12:28;;;;;;;8.55;5.55;;;;;;;;;;4988469;28;20037;-59
2022/03/04 13:14:54;;;;;;;9.23;5.97;;;;;;;;;;4971036;28;20109;-59
2022/03/04 13:17:20;;;;;;;13.82;9.40;;;;;;;;;;4987284;28;20035;-58
2022/03/04 13:19:47;;;;;;;13.65;8.45;;;;;;;;;;4987974;28;20022;-58
2022/03/04 13:22:14;;;;;;;12.38;7.82;;;;;;;;;;4988892;28;20022;-59
2022/03/04 13:24:56;;;;;;;12.85;7.57;;;;;;;;;;4987421;28;20042;-59
2022/03/04 13:27:23;;;;;;;12.73;7.88;;;;;;;;;;4988564;28;20387;-59
2022/03/04 13:29:59;;;;;;;11.45;7.50;;;;;;;;;;4987545;28;20359;-59
2022/03/04 13:32:28;;;;;;;9.80;6.15;;;;;;;;;;4987777;28;20038;-59
2022/03/04 13:34:56;;;;;;;7.38;5.18;;;;;;;;;;4988319;28;20113;-59
2022/03/04 13:37:24;;;;;;;7.28;5.00;;;;;;;;;;4988415;28;20034;-59
2022/03/04 13:39:57;;;;;;;11.40;7.80;;;;;;;;;;4987713;28;20112;-59
2022/03/04 13:42:30;;;;;;;7.70;5.68;;;;;;;;;;4987597;28;20034;-60
2022/03/04 13:45:06;;;;;;;7.32;5.20;;;;;;;;;;4987675;28;20040;-59
2022/03/04 13:47:35;;;;;;;7.93;5.03;;;;;;;;;;4987133;28;20320;-58
2022/03/04 13:50:04;;;;;;;7.00;5.10;;;;;;;;;;4970530;28;20034;-58
2022/03/04 13:52:46;;;;;;;7.80;5.38;;;;;;;;;;4987296;28;20045;-59
2022/03/04 13:55:13;;;;;;;9.48;5.90;;;;;;;;;;4970736;28;20463;-59
2022/03/04 13:57:40;;;;;;;9.80;5.95;;;;;;;;;;4987565;28;20476;-59
2022/03/04 14:00:09;;;;;;;7.75;4.88;;;;;;;;;;4987438;28;20536;-58
2022/03/04 14:02:53;;;;;;;7.72;5.18;;;;;;;;;;4986696;28;20073;-59
2022/03/04 14:05:29;;;;;;;6.68;4.85;;;;;;;;;;4987692;28;20026;-58
2022/03/04 14:08:12;;;;;;;7.43;4.75;;;;;;;;;;4987364;28;20116;-58
2022/03/04 14:10:39;;;;;;;8.10;5.38;;;;;;;;;;4987314;28;20462;-58
2022/03/04 14:13:08;;;;;;;8.30;5.07;;;;;;;;;;4987636;28;20030;-58
2022/03/04 14:15:35;;;;;;;9.57;5.70;;;;;;;;;;4969802;28;20441;-58
2022/03/04 14:18:03;;;;;;;10.57;6.20;;;;;;;;;;4987760;28;20034;-58
2022/03/04 14:20:30;;;;;;;11.27;6.70;;;;;;;;;;4986735;28;20077;-58
2022/03/04 14:22:56;;;;;;;12.50;7.75;;;;;;;;;;4986876;28;20118;-58
2022/03/04 14:25:23;;;;;;;10.50;7.05;;;;;;;;;;4969705;28;20030;-58
2022/03/04 14:27:52;;;;;;;8.95;6.00;;;;;;;;;;4969353;28;20421;-59
2022/03/04 14:30:23;;;;;;;8.85;5.93;;;;;;;;;;4968620;28;20551;-59
2022/03/04 14:32:49;;;;;;;11.25;6.65;;;;;;;;;;4986201;28;20121;-58
2022/03/04 14:35:16;;;;;;;8.07;5.47;;;;;;;;;;4986871;28;20031;-59
2022/03/04 14:37:42;;;;;;;8.02;5.18;;;;;;;;;;4986996;28;20081;-59
2022/03/04 14:40:11;;;;;;;7.70;4.72;;;;;;;;;;4987120;28;20065;-59
2022/03/04 14:42:38;;;;;;;5.45;4.10;;;;;;;;;;4986276;28;20690;-58